Gongxian, China
Current Conditions -  °F | °C
As of 10:00 AM on Thursday 23 Oct 2014 (Local Time) from ZHCC Reporting Station
Haze Haze  
Wind Chill: 66°   Ceiling: Unl
Heat Index: 66°   Visibility: 0.62mi
Dew Point: 57°   Wind: 4mph
Humidity: 73%   Direction: 190°S
Pressure: 30.06"   Gusts: NA
Location:  34.77°N, 112.95°E
Report Text: ZHCC 230200Z 19002MPS 150V260 1000 R12/1200V1400N BRNSC19/14 Q1018 BECMG 1500
Loading
Personal Weather Stations






























Interactive Weather Map
Tropical Storm Tracking
New forecast layout! Learn more

10-Day Weather Forecast

Advertisements
Track Severe Weather on mobile